createdAt,value
2018-09-17T00:06:58.177Z,3.40
2018-09-17T00:09:26.399Z,3.53
2018-09-17T00:11:54.642Z,3.43
2018-09-17T00:14:22.830Z,3.70
2018-09-17T00:16:51.332Z,3.60
2018-09-17T00:19:19.691Z,3.20
2018-09-17T00:21:47.994Z,3.30
2018-09-17T00:24:16.337Z,3.70
2018-09-17T00:26:44.597Z,3.42
2018-09-17T00:29:12.785Z,3.70
2018-09-17T00:31:41.048Z,3.60
2018-09-17T00:34:10.236Z,3.37
2018-09-17T00:36:38.919Z,3.80
2018-09-17T00:39:09.746Z,3.70
2018-09-17T00:41:38.461Z,3.30
2018-09-17T00:44:07.091Z,3.60
2018-09-17T00:46:35.682Z,4.10
2018-09-17T00:49:04.550Z,3.40
2018-09-17T00:51:33.264Z,3.63
2018-09-17T00:54:01.567Z,3.90
2018-09-17T00:56:29.886Z,3.47
2018-09-17T00:58:58.172Z,3.37
2018-09-17T01:01:26.442Z,3.57
2018-09-17T01:03:55.558Z,3.22
2018-09-17T01:06:24.521Z,3.50
2018-09-17T01:08:52.807Z,3.10
2018-09-17T01:11:23.195Z,3.40
2018-09-17T01:13:51.441Z,3.70
2018-09-17T01:16:20.053Z,3.50
2018-09-17T01:18:48.518Z,3.70
2018-09-17T01:21:16.691Z,3.40
2018-09-17T01:23:44.928Z,3.63
2018-09-17T01:26:13.276Z,3.03
2018-09-17T01:28:41.513Z,3.43
2018-09-17T01:31:09.729Z,3.43
2018-09-17T01:33:37.971Z,3.33
2018-09-17T01:36:06.166Z,3.47
2018-09-17T01:38:34.393Z,3.55
2018-09-17T01:41:02.657Z,3.20
2018-09-17T01:43:31.009Z,3.20
2018-09-17T01:45:59.301Z,3.00
2018-09-17T01:48:27.631Z,3.40
2018-09-17T01:50:55.912Z,3.40
2018-09-17T01:53:24.214Z,3.27
2018-09-17T01:55:52.505Z,3.20
2018-09-17T01:58:20.742Z,2.97
2018-09-17T02:00:48.966Z,3.00
2018-09-17T02:03:17.221Z,3.13
2018-09-17T02:05:45.463Z,2.95
2018-09-17T02:08:13.823Z,3.10
2018-09-17T02:10:41.913Z,3.20
2018-09-17T02:13:10.131Z,3.63
2018-09-17T02:15:38.569Z,2.87
2018-09-17T02:18:06.856Z,3.10
2018-09-17T02:20:35.212Z,3.10
2018-09-17T02:23:03.479Z,2.77
2018-09-17T02:25:31.666Z,3.23
2018-09-17T02:27:59.898Z,3.33
2018-09-17T02:30:28.088Z,3.23
2018-09-17T02:32:56.218Z,3.40
2018-09-17T02:35:24.455Z,3.23
2018-09-17T02:37:52.693Z,3.53
2018-09-17T02:40:20.927Z,3.27
2018-09-17T02:42:50.162Z,3.77
2018-09-17T02:45:19.422Z,3.33
2018-09-17T02:47:47.742Z,3.93
2018-09-17T02:50:16.073Z,3.20
2018-09-17T02:52:44.281Z,3.60
2018-09-17T02:55:12.530Z,3.53
2018-09-17T02:57:40.736Z,4.10
2018-09-17T03:00:09.897Z,4.03
2018-09-17T03:02:38.427Z,3.95
2018-09-17T03:05:08.228Z,4.17
2018-09-17T03:07:36.465Z,3.50
2018-09-17T03:10:04.842Z,4.47
2018-09-17T03:12:33.039Z,4.10
2018-09-17T03:15:11.453Z,4.20
2018-09-17T03:17:39.666Z,4.60
2018-09-17T03:20:09.073Z,4.40
2018-09-17T03:22:37.273Z,4.63
2018-09-17T03:25:05.567Z,4.97
2018-09-17T03:27:33.878Z,4.73
2018-09-17T03:30:02.037Z,4.53
2018-09-17T03:32:30.222Z,4.50
2018-09-17T03:34:59.029Z,4.63
2018-09-17T03:37:30.197Z,4.37
2018-09-17T03:39:59.305Z,5.35
2018-09-17T03:42:28.439Z,4.60
2018-09-17T03:44:58.118Z,4.80
2018-09-17T03:47:26.694Z,4.70
2018-09-17T03:49:55.137Z,4.90
2018-09-17T03:52:23.653Z,4.60
2018-09-17T03:54:51.841Z,4.83
2018-09-17T03:57:20.306Z,5.13
2018-09-17T03:59:48.794Z,4.77
2018-09-17T04:02:17.266Z,4.83
2018-09-17T04:04:45.701Z,4.70
2018-09-17T04:07:14.058Z,4.73
2018-09-17T04:09:44.293Z,5.03
2018-09-17T04:12:13.913Z,4.83
2018-09-17T04:14:42.165Z,5.07
2018-09-17T04:17:10.550Z,4.97
2018-09-17T04:19:38.924Z,4.95
2018-09-17T04:22:07.777Z,4.93
2018-09-17T04:24:35.930Z,5.13
2018-09-17T04:27:04.149Z,4.80
2018-09-17T04:29:33.360Z,5.00
2018-09-17T04:32:01.588Z,4.90
2018-09-17T04:34:29.817Z,5.03
2018-09-17T04:36:58.111Z,4.92
2018-09-17T04:39:27.139Z,4.77
2018-09-17T04:41:55.434Z,4.53
2018-09-17T04:44:23.645Z,4.90
2018-09-17T04:46:52.633Z,4.93
2018-09-17T04:49:21.927Z,5.10
2018-09-17T04:51:50.409Z,5.07
2018-09-17T04:54:18.643Z,4.87
2018-09-17T04:56:47.015Z,5.23
2018-09-17T04:59:16.391Z,5.00
2018-09-17T05:01:44.633Z,4.80
2018-09-17T05:04:13.048Z,4.87
2018-09-17T05:06:41.361Z,5.03
2018-09-17T05:09:10.598Z,5.77
2018-09-17T05:11:38.953Z,6.00
2018-09-17T05:14:07.262Z,5.43
2018-09-17T05:16:35.721Z,6.17
2018-09-17T05:19:03.931Z,5.53
2018-09-17T05:21:32.121Z,5.65
2018-09-17T05:24:00.336Z,6.13
2018-09-17T05:26:28.643Z,6.20
2018-09-17T05:28:56.863Z,6.20
2018-09-17T05:31:25.159Z,6.00
2018-09-17T05:33:53.714Z,6.37
2018-09-17T05:36:23.335Z,6.33
2018-09-17T05:38:51.542Z,5.85
2018-09-17T05:41:19.848Z,5.53
2018-09-17T05:43:48.019Z,5.67
2018-09-17T05:46:16.260Z,6.03
2018-09-17T05:48:45.408Z,5.50
2018-09-17T05:51:13.654Z,5.57
2018-09-17T05:53:44.084Z,6.03
2018-09-17T05:56:13.056Z,6.30
2018-09-17T05:58:41.409Z,5.70
2018-09-17T06:01:09.839Z,5.93
2018-09-17T06:03:38.007Z,5.93
2018-09-17T06:06:06.321Z,6.23
2018-09-17T06:08:35.196Z,5.90
2018-09-17T06:11:04.645Z,6.17
2018-09-17T06:13:32.960Z,6.23
2018-09-17T06:16:01.191Z,6.50
2018-09-17T06:18:29.579Z,5.87
2018-09-17T06:20:58.038Z,6.27
2018-09-17T06:23:26.458Z,5.73
2018-09-17T06:25:54.637Z,6.30
2018-09-17T06:28:22.934Z,6.42
2018-09-17T06:30:51.122Z,6.23
2018-09-17T06:33:19.322Z,5.80
2018-09-17T06:35:47.545Z,6.43
2018-09-17T06:38:15.805Z,7.27
2018-09-17T06:40:44.054Z,6.87
2018-09-17T06:43:12.438Z,7.33
2018-09-17T06:45:44.703Z,6.63
2018-09-17T06:48:13.061Z,6.90
2018-09-17T06:50:41.254Z,7.10
2018-09-17T06:53:09.464Z,6.77
2018-09-17T06:55:37.783Z,7.40
2018-09-17T06:58:06.042Z,6.10
2018-09-17T07:00:34.311Z,7.17
2018-09-17T07:03:02.637Z,6.87
2018-09-17T07:05:30.872Z,5.73
2018-09-17T07:07:59.815Z,5.03
2018-09-17T07:10:28.031Z,5.30
2018-09-17T07:12:56.218Z,6.33
2018-09-17T07:15:24.459Z,6.27
2018-09-17T07:17:52.646Z,6.07
2018-09-17T07:20:21.023Z,6.97
2018-09-17T07:22:49.266Z,6.43
2018-09-17T07:25:17.555Z,6.90
2018-09-17T07:27:46.173Z,6.00
2018-09-17T07:30:14.375Z,5.97
2018-09-17T07:32:42.534Z,5.33
2018-09-17T07:35:12.458Z,6.27
2018-09-17T07:37:40.732Z,5.00
2018-09-17T07:40:08.933Z,5.10
2018-09-17T07:42:37.146Z,4.83
2018-09-17T07:45:06.071Z,4.93
2018-09-17T07:47:34.478Z,5.37
2018-09-17T07:50:02.784Z,4.60
2018-09-17T07:52:31.099Z,4.50
2018-09-17T07:54:59.460Z,4.10
2018-09-17T07:57:27.788Z,5.10
2018-09-17T07:59:55.997Z,4.20
2018-09-17T08:02:24.275Z,4.60
2018-09-17T08:04:52.510Z,4.00
2018-09-17T08:07:20.868Z,4.40
2018-09-17T08:09:49.159Z,4.13
2018-09-17T08:12:17.400Z,3.90
2018-09-17T08:14:46.543Z,4.62
2018-09-17T08:17:14.798Z,4.13
2018-09-17T08:19:43.036Z,4.42
2018-09-17T08:22:11.370Z,4.30
2018-09-17T08:24:39.560Z,4.62
2018-09-17T08:27:07.842Z,4.83
2018-09-17T08:29:36.168Z,4.33
2018-09-17T08:32:04.464Z,4.28
2018-09-17T08:34:32.689Z,4.78
2018-09-17T08:37:00.948Z,4.37
2018-09-17T08:39:29.211Z,4.78
2018-09-17T08:41:57.396Z,4.10
2018-09-17T08:44:25.565Z,4.60
2018-09-17T08:46:53.815Z,4.60
2018-09-17T08:49:22.042Z,4.85
2018-09-17T08:51:50.216Z,4.90
2018-09-17T08:54:19.449Z,4.42
2018-09-17T08:56:55.834Z,4.15
2018-09-17T08:59:30.935Z,4.30
2018-09-17T09:02:04.243Z,4.05
2018-09-17T09:06:42.845Z,4.47
2018-09-17T09:09:15.270Z,4.37
2018-09-17T09:11:47.464Z,3.80
2018-09-17T09:14:21.090Z,4.35
2018-09-17T09:16:49.494Z,3.97
2018-09-17T09:19:17.816Z,4.05
2018-09-17T09:21:46.090Z,3.83
2018-09-17T09:24:14.432Z,4.37
2018-09-17T09:26:42.755Z,3.55
2018-09-17T09:29:11.051Z,4.30
2018-09-17T09:31:39.259Z,4.58
2018-09-17T09:34:07.490Z,5.53
2018-09-17T09:36:35.722Z,3.90
2018-09-17T09:39:05.873Z,3.90
2018-09-17T09:41:34.419Z,3.50
2018-09-17T09:44:03.285Z,4.40
2018-09-17T09:46:31.548Z,3.95
2018-09-17T09:48:59.747Z,3.50
2018-09-17T09:51:27.952Z,3.42
2018-09-17T09:53:56.345Z,3.02
2018-09-17T09:56:24.625Z,3.40
2018-09-17T09:58:52.968Z,2.92
2018-09-17T10:01:27.257Z,3.33
2018-09-17T10:04:01.026Z,2.72
2018-09-17T10:06:29.288Z,3.37
2018-09-17T10:09:02.973Z,3.35
2018-09-17T10:11:36.541Z,3.00
2018-09-17T10:14:10.237Z,2.83
2018-09-17T10:16:42.750Z,3.35
2018-09-17T10:19:16.462Z,2.83
2018-09-17T10:21:44.650Z,2.83
2018-09-17T10:24:12.846Z,3.00
2018-09-17T10:26:41.118Z,2.90
2018-09-17T10:29:09.296Z,2.70
2018-09-17T10:31:37.477Z,2.60
2018-09-17T10:34:05.687Z,2.65
2018-09-17T10:36:33.922Z,2.35
2018-09-17T10:39:02.115Z,2.67
2018-09-17T10:41:30.338Z,1.92
2018-09-17T10:43:58.543Z,2.92
2018-09-17T10:46:26.790Z,2.65
2018-09-17T10:48:55.910Z,2.40
2018-09-17T10:51:24.150Z,2.45
2018-09-17T10:53:52.631Z,2.40
2018-09-17T10:56:20.879Z,2.47
2018-09-17T10:58:49.141Z,2.42
2018-09-17T11:01:17.365Z,2.15
2018-09-17T11:03:45.684Z,2.08
2018-09-17T11:06:13.943Z,2.10
2018-09-17T11:08:42.119Z,2.50
2018-09-17T11:11:10.278Z,2.08
2018-09-17T11:13:38.570Z,1.50
2018-09-17T11:16:06.764Z,1.67
2018-09-17T11:18:34.945Z,1.77
2018-09-17T11:21:03.188Z,1.75
2018-09-17T11:23:31.628Z,2.37
2018-09-17T11:25:59.876Z,1.67
2018-09-17T11:28:28.110Z,2.00
2018-09-17T11:30:56.384Z,1.62
2018-09-17T11:33:24.581Z,2.08
2018-09-17T11:35:52.899Z,1.75
2018-09-17T11:38:21.092Z,2.55
2018-09-17T11:40:49.316Z,2.20
2018-09-17T11:43:17.543Z,1.70
2018-09-17T11:45:45.925Z,2.40
2018-09-17T11:48:14.170Z,2.05
2018-09-17T11:50:42.377Z,2.10
2018-09-17T11:53:10.598Z,1.97
2018-09-17T11:55:38.817Z,2.22
2018-09-17T11:58:06.998Z,2.10
2018-09-17T12:00:40.713Z,1.80
2018-09-17T12:03:14.368Z,1.97
2018-09-17T12:05:48.032Z,2.17
2018-09-17T12:08:18.681Z,2.22
2018-09-17T12:10:46.887Z,2.00
2018-09-17T12:13:15.881Z,2.15
2018-09-17T12:15:44.636Z,2.27
2018-09-17T12:18:13.842Z,2.55
2018-09-17T12:20:42.037Z,2.47
2018-09-17T12:23:10.715Z,1.50
2018-09-17T12:25:38.956Z,1.57
2018-09-17T12:28:07.646Z,1.70
2018-09-17T12:30:35.941Z,2.05
2018-09-17T12:33:04.236Z,1.70
2018-09-17T12:35:32.460Z,2.65
2018-09-17T12:38:00.684Z,1.95
2018-09-17T12:40:29.916Z,2.00
2018-09-17T12:42:58.191Z,2.27
2018-09-17T12:45:26.733Z,2.20
2018-09-17T12:47:55.522Z,2.02
2018-09-17T12:50:24.040Z,2.20
2018-09-17T12:52:52.287Z,1.77
2018-09-17T12:55:20.519Z,1.98
2018-09-17T12:57:49.188Z,2.22
2018-09-17T13:00:17.386Z,2.30
2018-09-17T13:02:45.713Z,1.70
2018-09-17T13:05:14.107Z,1.50
2018-09-17T13:07:42.417Z,1.98
2018-09-17T13:10:10.624Z,2.30
2018-09-17T13:12:38.846Z,1.60
2018-09-17T13:15:07.243Z,1.45
2018-09-17T13:17:35.660Z,1.70
2018-09-17T13:24:56.922Z,1.80
2018-09-17T13:27:25.088Z,2.20
2018-09-17T13:29:53.332Z,1.90
2018-09-17T13:32:21.676Z,2.33
2018-09-17T13:34:50.016Z,2.08
2018-09-17T13:37:18.246Z,1.62
2018-09-17T13:39:46.565Z,1.85
2018-09-17T13:42:14.870Z,1.80
2018-09-17T13:44:43.257Z,1.67
2018-09-17T13:47:11.386Z,2.55
2018-09-17T13:49:39.698Z,1.92
2018-09-17T13:52:07.921Z,1.60
2018-09-17T13:54:37.250Z,1.98
2018-09-17T13:57:05.521Z,1.92
2018-09-17T13:59:33.872Z,2.05
2018-09-17T14:02:02.105Z,1.67
2018-09-17T14:04:30.411Z,2.00
2018-09-17T14:06:58.789Z,1.97
2018-09-17T14:09:27.013Z,1.90
2018-09-17T14:11:55.209Z,1.90
2018-09-17T14:14:23.432Z,1.57
2018-09-17T14:16:51.800Z,2.02
2018-09-17T14:19:20.073Z,2.35
2018-09-17T14:21:48.240Z,2.30
2018-09-17T14:24:16.472Z,2.17
2018-09-17T14:26:44.690Z,2.08
2018-09-17T14:29:12.940Z,1.97
2018-09-17T14:31:46.705Z,1.70
2018-09-17T14:34:14.917Z,1.77
2018-09-17T14:36:43.139Z,1.67
2018-09-17T14:39:11.340Z,1.92
2018-09-17T14:41:39.601Z,2.08
2018-09-17T14:44:08.688Z,1.92
2018-09-17T14:46:36.935Z,1.95
2018-09-17T14:49:05.122Z,1.77
2018-09-17T14:51:33.406Z,2.00
2018-09-17T14:54:01.825Z,2.20
2018-09-17T14:56:31.388Z,2.22
2018-09-17T14:58:59.904Z,1.85
2018-09-17T15:01:28.393Z,1.95
2018-09-17T15:03:56.606Z,1.75
2018-09-17T15:06:24.872Z,1.98
2018-09-17T15:08:53.223Z,1.87
2018-09-17T15:11:21.365Z,2.27
2018-09-17T15:13:49.722Z,1.97
2018-09-17T15:16:18.076Z,1.77
2018-09-17T15:18:47.279Z,1.62
2018-09-17T15:21:15.595Z,1.60
2018-09-17T15:23:43.874Z,1.75
2018-09-17T15:26:12.175Z,1.77
2018-09-17T15:28:40.359Z,1.80
2018-09-17T15:31:08.715Z,1.70
2018-09-17T15:33:36.876Z,2.30
2018-09-17T15:36:05.445Z,2.15
2018-09-17T15:38:33.621Z,1.95
2018-09-17T15:41:02.113Z,1.75
2018-09-17T15:43:30.216Z,1.93
2018-09-17T15:45:58.363Z,2.17
2018-09-17T15:48:26.583Z,2.13
2018-09-17T15:50:54.876Z,1.67
2018-09-17T15:53:23.144Z,1.92
2018-09-17T15:55:51.428Z,1.80
2018-09-17T15:58:19.966Z,1.87
2018-09-17T16:00:48.614Z,2.05
2018-09-17T16:03:17.095Z,1.92
2018-09-17T16:05:45.381Z,3.03
2018-09-17T16:08:13.865Z,2.20
2018-09-17T16:10:43.184Z,2.42
2018-09-17T16:13:11.491Z,1.90
2018-09-17T16:15:39.717Z,1.77
2018-09-17T16:18:08.013Z,1.57
2018-09-17T16:20:36.205Z,2.05
2018-09-17T16:23:04.527Z,1.80
2018-09-17T16:25:32.875Z,1.60
2018-09-17T16:28:01.307Z,1.60
2018-09-17T16:30:29.536Z,1.90
2018-09-17T16:32:57.736Z,2.62
2018-09-17T16:35:26.074Z,2.20
2018-09-17T16:37:55.276Z,3.77
2018-09-17T16:40:23.548Z,3.17
2018-09-17T16:42:51.756Z,3.20
2018-09-17T16:45:20.262Z,3.00
2018-09-17T16:47:48.575Z,1.70
2018-09-17T16:50:16.893Z,1.90
2018-09-17T16:52:46.212Z,1.70
2018-09-17T16:55:14.380Z,1.60
2018-09-17T16:57:42.839Z,1.57
2018-09-17T17:00:11.118Z,2.20
2018-09-17T17:02:40.615Z,2.80
2018-09-17T17:05:08.908Z,2.33
2018-09-17T17:07:37.126Z,2.40
2018-09-17T17:10:05.627Z,2.90
2018-09-17T17:12:33.859Z,2.77
2018-09-17T17:15:02.072Z,3.13
2018-09-17T17:17:30.293Z,2.77
2018-09-17T17:19:58.557Z,3.23
2018-09-17T17:22:26.839Z,2.63
2018-09-17T17:24:55.058Z,2.97
2018-09-17T17:27:23.396Z,3.00
2018-09-17T17:29:51.678Z,2.87
2018-09-17T17:32:20.009Z,3.30
2018-09-17T17:34:48.309Z,3.57
2018-09-17T17:37:16.674Z,3.37
2018-09-17T17:44:38.849Z,4.17
2018-09-17T17:47:07.150Z,3.50
2018-09-17T17:49:35.370Z,2.73
2018-09-17T17:52:03.706Z,3.02
2018-09-17T17:54:32.063Z,3.23
2018-09-17T17:57:01.184Z,2.80
2018-09-17T17:59:29.560Z,2.80
2018-09-17T18:01:57.764Z,3.00
2018-09-17T18:04:26.196Z,3.17
2018-09-17T18:06:54.334Z,3.07
2018-09-17T18:09:22.651Z,2.90
2018-09-17T18:11:50.924Z,2.83
2018-09-17T18:14:19.360Z,3.10
2018-09-17T18:16:47.655Z,3.10
2018-09-17T18:19:18.225Z,3.03
2018-09-17T18:21:46.628Z,3.93
2018-09-17T18:24:14.767Z,3.40
2018-09-17T18:26:43.038Z,3.87
2018-09-17T18:29:11.227Z,4.47
2018-09-17T18:31:39.552Z,4.22
2018-09-17T18:34:07.793Z,4.83
2018-09-17T18:36:37.830Z,5.20
2018-09-17T18:39:08.756Z,4.97
2018-09-17T18:41:36.983Z,5.17
2018-09-17T18:44:05.384Z,4.70
2018-09-17T18:46:34.550Z,5.43
2018-09-17T18:49:02.859Z,4.83
2018-09-17T18:51:31.217Z,4.60
2018-09-17T18:53:59.677Z,4.80
2018-09-17T18:56:27.965Z,4.97
2018-09-17T18:58:56.444Z,4.87
2018-09-17T19:01:25.181Z,4.20
2018-09-17T19:03:53.637Z,4.60
2018-09-17T19:06:22.088Z,4.17
2018-09-17T19:08:50.575Z,4.43
2018-09-17T19:11:19.124Z,5.10
2018-09-17T19:13:52.968Z,4.77
2018-09-17T19:16:26.588Z,4.78
2018-09-17T19:18:55.087Z,4.57
2018-09-17T19:21:27.850Z,5.00
2018-09-17T19:24:01.540Z,4.93
2018-09-17T19:26:29.950Z,4.85
2018-09-17T19:29:03.741Z,4.30
2018-09-17T19:31:32.147Z,4.37
2018-09-17T19:34:00.571Z,4.07
2018-09-17T19:36:29.098Z,4.80
2018-09-17T19:39:02.780Z,4.53
2018-09-17T19:41:31.081Z,4.77
2018-09-17T19:43:59.438Z,4.57
2018-09-17T19:46:27.669Z,4.70
2018-09-17T19:48:55.942Z,3.97
2018-09-17T19:51:29.534Z,4.23
2018-09-17T19:53:57.975Z,4.23
2018-09-17T19:56:26.213Z,4.37
2018-09-17T19:58:59.803Z,4.00
2018-09-17T20:01:28.074Z,3.97
2018-09-17T20:03:58.854Z,3.83
2018-09-17T20:06:27.581Z,3.57
2018-09-17T20:08:55.862Z,4.20
2018-09-17T20:11:24.232Z,3.43
2018-09-17T20:13:52.440Z,3.70
2018-09-17T20:16:21.027Z,3.80
2018-09-17T20:18:49.232Z,4.20
2018-09-17T20:21:29.868Z,3.90
2018-09-17T20:23:58.211Z,3.93
2018-09-17T20:26:26.489Z,4.43
2018-09-17T20:28:54.697Z,3.53
2018-09-17T20:31:22.991Z,4.40
2018-09-17T20:33:51.186Z,3.83
2018-09-17T20:36:19.426Z,4.00
2018-09-17T20:38:47.782Z,4.27
2018-09-17T20:41:15.971Z,4.40
2018-09-17T20:43:44.191Z,4.63
2018-09-17T20:46:12.656Z,4.17
2018-09-17T20:48:40.968Z,4.30
2018-09-17T20:51:09.565Z,4.50
2018-09-17T20:53:37.889Z,4.20
2018-09-17T20:56:06.304Z,4.37
2018-09-17T20:58:35.241Z,4.30
2018-09-17T21:01:04.962Z,4.60
2018-09-17T21:03:33.295Z,4.13
2018-09-17T21:06:02.301Z,4.47
2018-09-17T21:08:30.693Z,4.33
2018-09-17T21:11:00.247Z,4.05
2018-09-17T21:13:30.710Z,4.30
2018-09-17T21:15:59.231Z,4.20
2018-09-17T21:18:27.585Z,4.10
2018-09-17T21:20:56.889Z,4.40
2018-09-17T21:23:30.294Z,4.57
2018-09-17T21:25:59.398Z,4.70
2018-09-17T21:28:27.599Z,4.80
2018-09-17T21:30:58.054Z,4.10
2018-09-17T21:33:26.369Z,4.40
2018-09-17T21:35:54.618Z,4.00
2018-09-17T21:38:25.130Z,4.20
2018-09-17T21:40:53.550Z,4.17
2018-09-17T21:43:21.826Z,4.30
2018-09-17T21:45:50.110Z,4.27
2018-09-17T21:48:18.510Z,4.63
2018-09-17T21:50:46.786Z,3.90
2018-09-17T21:53:14.969Z,4.00
2018-09-17T21:55:43.150Z,4.00
2018-09-17T21:58:11.338Z,3.90
2018-09-17T22:00:45.168Z,4.05
2018-09-17T22:03:13.359Z,3.30
2018-09-17T22:05:41.566Z,4.03
2018-09-17T22:08:09.733Z,3.77
2018-09-17T22:10:38.375Z,4.50
2018-09-17T22:13:06.621Z,3.63
2018-09-17T22:15:34.855Z,4.03
2018-09-17T22:18:03.223Z,3.77
2018-09-17T22:20:31.502Z,4.07
2018-09-17T22:22:59.746Z,5.40
2018-09-17T22:25:27.988Z,5.53
2018-09-17T22:27:56.313Z,4.90
2018-09-17T22:30:24.571Z,3.80
2018-09-17T22:32:52.832Z,4.10
2018-09-17T22:35:21.170Z,4.10
2018-09-17T22:37:49.251Z,4.03
2018-09-17T22:40:17.436Z,3.85
2018-09-17T22:42:45.654Z,3.63
2018-09-17T22:45:14.044Z,3.67
2018-09-17T22:47:42.321Z,3.73
2018-09-17T22:55:04.806Z,3.63
2018-09-17T22:57:33.933Z,3.70
2018-09-17T23:00:03.085Z,4.00
2018-09-17T23:02:31.300Z,4.30
2018-09-17T23:04:59.511Z,4.10
2018-09-17T23:12:22.184Z,3.10
2018-09-17T23:14:51.467Z,3.67
2018-09-17T23:17:21.418Z,3.57
2018-09-17T23:19:49.655Z,3.72
2018-09-17T23:22:17.818Z,3.50
2018-09-17T23:24:46.251Z,3.10
2018-09-17T23:27:14.481Z,3.73
2018-09-17T23:29:42.677Z,3.67
2018-09-17T23:32:10.945Z,3.43
2018-09-17T23:34:39.205Z,3.60
2018-09-17T23:37:07.420Z,3.70
2018-09-17T23:39:35.661Z,4.23
2018-09-17T23:42:03.815Z,3.27
2018-09-17T23:44:32.096Z,3.37
2018-09-17T23:47:00.285Z,3.80
2018-09-17T23:49:28.561Z,3.70
2018-09-17T23:51:56.723Z,4.27
2018-09-17T23:54:25.227Z,4.80
2018-09-17T23:56:53.469Z,3.80
2018-09-17T23:59:21.652Z,4.23
